Jhelum Weather



Jhelum's Current Weather

Temprature 16.299o clear sky

clear sky

Rain: 0 %

Min Temprature16.299o
Max Temprature16.299o
Humidity71
Wind Speed1.61 m/h
Sun Rise06:40:12
Sun Set17:57:11
Current Time: 23-Feb-2019 16:12:05
Lat/Lon: 32.94, 73.72




Jhelum's Geo Location




Jhelum's Weather Forecast

Time Overall Temp Min Temp Max Temp Humidity Wind Speed Rain
23-Feb-2019 (Sat)
17:00:00 clear sky 16.250 16.250 16.299 71 1.61 m/h 0 %
20:00:00 clear sky 9.990 9.990 10.034 77 1.62 m/h 0 %
23:00:00 clear sky 6.840 6.840 6.865 86 1.17 m/h 0 %
24-Feb-2019 (Sun)
02:00:00 clear sky 5.500 5.500 5.510 86 1.26 m/h 0 %
05:00:00 clear sky 4.642 4.642 4.642 85 1.21 m/h 0 %
08:00:00 clear sky 6.478 6.478 6.478 85 1.06 m/h 0 %
11:00:00 clear sky 15.199 15.199 15.199 88 0.16 m/h 0 %
14:00:00 clear sky 17.606 17.606 17.606 79 1.87 m/h 0 %
17:00:00 few clouds 16.896 16.896 16.896 65 1.4 m/h 0 %
20:00:00 few clouds 10.668 10.668 10.668 75 1.21 m/h 0 %
23:00:00 scattered clouds 7.961 7.961 7.961 87 1.31 m/h 0 %
25-Feb-2019 (Mon)
02:00:00 scattered clouds 7.355 7.355 7.355 83 1.62 m/h 0 %
05:00:00 overcast clouds 7.577 7.577 7.577 71 1.66 m/h 0 %
08:00:00 broken clouds 9.495 9.495 9.495 72 1.87 m/h 0 %
11:00:00 overcast clouds 12.772 12.772 12.772 79 1.71 m/h 0 %
14:00:00 broken clouds 13.948 13.948 13.948 78 1.62 m/h 0 %
17:00:00 light rain 11.287 11.287 11.287 95 1.31 m/h 179 %
20:00:00 light rain 8.923 8.923 8.923 94 2.71 m/h 67 %
23:00:00 moderate rain 8.392 8.392 8.392 95 2.91 m/h 363 %
26-Feb-2019 (Tue)
02:00:00 moderate rain 8.901 8.901 8.901 99 2.41 m/h 406 %
05:00:00 light rain 8.947 8.947 8.947 98 2.86 m/h 47 %
08:00:00 light rain 9.407 9.407 9.407 99 2.77 m/h 47 %
11:00:00 light rain 11.892 11.892 11.892 100 2.57 m/h 13 %
14:00:00 light rain 12.471 12.471 12.471 100 3.16 m/h 7 %
17:00:00 light rain 11.764 11.764 11.764 98 1.56 m/h 5 %
20:00:00 light rain 9.511 9.511 9.511 100 1.22 m/h 3 %
23:00:00 light rain 8.698 8.698 8.698 98 1.42 m/h 1 %
27-Feb-2019 (Wed)
02:00:00 light rain 7.881 7.881 7.881 100 1.31 m/h 241 %
05:00:00 light rain 6.994 6.994 6.994 98 1.4 m/h 66 %
08:00:00 light rain 7.615 7.615 7.615 100 1.72 m/h 5 %
11:00:00 light rain 10.745 10.745 10.745 100 2.11 m/h 4 %
14:00:00 light rain 11.336 11.336 11.336 100 2.75 m/h 2 %
17:00:00 light rain 11.098 11.098 11.098 96 3.76 m/h 1 %
20:00:00 clear sky 7.167 7.167 7.167 98 1.22 m/h 0 %
23:00:00 few clouds 5.391 5.391 5.391 94 1.27 m/h 0 %
28-Feb-2019 (Thu)
02:00:00 few clouds 5.391 5.391 5.391 89 2.16 m/h 0 %
05:00:00 broken clouds 4.363 4.363 4.363 91 1.31 m/h 0 %
08:00:00 scattered clouds 6.440 6.440 6.440 87 1.26 m/h 0 %
11:00:00 overcast clouds 10.947 10.947 10.947 97 2.06 m/h 0 %
14:00:00 broken clouds 12.429 12.429 12.429 83 1.87 m/h 0 %

Famous Cities (60)